Hovedside
METAR-TAF:

METAR-TAF

Lufthavner :

Kittilä lufthavn

Kittilä, Finland

breddegrad: 67-42N, lengdegrad: 024-51E, høyde over havet: 196 m

Gjeldene værobservasjon

Denne rapporten ble laget for 14 minutter siden, klokken 12:20 UTC
Vind 17 kt fra Nord-nordvest
Temperatur -2°C
Luftfuktighet 69%
Trykk 983 hPa
Sikt 10 km eller mer
ingen skyer under 1500 m og ingen bygeskyer

METAR: EFKT 241220Z 34017KT CAVOK M02/M07 Q0983

Tid: 14:34 (12:34 UTC)

Varsel

Denne rapporten ble laget for 1 time og 2 minutter siden, klokken 11:32 UTC
Varsel gyldig fra 24. klokken 12 UTC til 24. klokken 17 UTC
Vind 14 kt fra Nord-nordvest
Sikt 10 km eller mer
ingen skyer under 1500 m og ingen bygeskyer
Midlertidig
fra 24. klokken 12 UTC til 24. klokken 15 UTC
Vind 15 kt fra Nord-nordvest med vindkast opp mot 25 kt

TAF: EFKT 241132Z 2412/2417 33014KT CAVOK TEMPO 2412/2415 33015G25KT

Værobservasjoner og værvarsel for over 4000 flyplasser (METAR- og TAF-rapporter).

Tilgjengelige stasjoner er representert av de røde og gule prikkene på kartet.

Hold musepekeren over prikken for å se navnet på stasjonen.

Klikk så for å se værobservasjoner og -varsler.

For å forandre kartet kan du klikke på den grønne knappen med svart kryss for å zoome inn, på den grønne knappen med strek for å zoome ut, eller på de grønne pilene for å se tilstøtende kart.


METAR-TAF: